sensor_id;sensor_type;location;lat;lon;timestamp;P1;durP1;ratioP1;P2;durP2;ratioP2
48881;SDS011;57063;51.406;-2.402;2023-06-22T03:05:56;8.32;;;5.57;;
48881;SDS011;57063;51.406;-2.402;2023-06-22T03:08:22;8.90;;;6.97;;
48881;SDS011;57063;51.406;-2.402;2023-06-22T03:10:48;8.95;;;6.50;;
48881;SDS011;57063;51.406;-2.402;2023-06-22T05:02:07;13.18;;;9.73;;
48881;SDS011;57063;51.406;-2.402;2023-06-22T05:12:28;15.18;;;10.05;;
48881;SDS011;57063;51.406;-2.402;2023-06-22T05:15:11;12.30;;;9.07;;
48881;SDS011;57063;51.406;-2.402;2023-06-22T05:17:37;18.67;;;11.50;;
48881;SDS011;57063;51.406;-2.402;2023-06-22T05:20:08;17.95;;;11.88;;
48881;SDS011;57063;51.406;-2.402;2023-06-22T05:22:35;18.45;;;13.25;;
48881;SDS011;57063;51.406;-2.402;2023-06-22T06:14:22;11.80;;;9.57;;
48881;SDS011;57063;51.406;-2.402;2023-06-22T06:16:50;12.55;;;8.68;;
48881;SDS011;57063;51.406;-2.402;2023-06-22T06:19:16;11.82;;;9.48;;
48881;SDS011;57063;51.406;-2.402;2023-06-22T06:21:42;13.15;;;9.50;;
48881;SDS011;57063;51.406;-2.402;2023-06-22T06:24:19;11.25;;;8.85;;
48881;SDS011;57063;51.406;-2.402;2023-06-22T06:26:51;10.13;;;8.00;;
48881;SDS011;57063;51.406;-2.402;2023-06-22T06:29:18;11.30;;;7.22;;
48881;SDS011;57063;51.406;-2.402;2023-06-22T06:31:48;7.85;;;6.60;;
48881;SDS011;57063;51.406;-2.402;2023-06-22T06:41:59;7.00;;;4.25;;
48881;SDS011;57063;51.406;-2.402;2023-06-22T06:44:25;4.53;;;2.92;;
48881;SDS011;57063;51.406;-2.402;2023-06-22T06:46:51;4.47;;;2.80;;
48881;SDS011;57063;51.406;-2.402;2023-06-22T06:49:19;5.13;;;2.80;;
48881;SDS011;57063;51.406;-2.402;2023-06-22T06:51:44;4.45;;;2.63;;
48881;SDS011;57063;51.406;-2.402;2023-06-22T06:54:10;4.70;;;2.50;;
48881;SDS011;57063;51.406;-2.402;2023-06-22T06:56:36;4.38;;;2.22;;
48881;SDS011;57063;51.406;-2.402;2023-06-22T06:59:01;4.80;;;2.40;;
48881;SDS011;57063;51.406;-2.402;2023-06-22T07:01:30;2.33;;;2.00;;
48881;SDS011;57063;51.406;-2.402;2023-06-22T07:03:59;2.28;;;1.50;;
48881;SDS011;57063;51.406;-2.402;2023-06-22T07:06:32;3.50;;;2.20;;
48881;SDS011;57063;51.406;-2.402;2023-06-22T07:09:07;6.60;;;2.00;;
48881;SDS011;57063;51.406;-2.402;2023-06-22T07:11:37;4.82;;;2.22;;
48881;SDS011;57063;51.406;-2.402;2023-06-22T07:19:11;5.97;;;3.38;;
48881;SDS011;57063;51.406;-2.402;2023-06-22T07:21:37;4.82;;;3.22;;
48881;SDS011;57063;51.406;-2.402;2023-06-22T07:29:15;4.70;;;2.50;;
48881;SDS011;57063;51.406;-2.402;2023-06-22T07:34:23;6.47;;;3.17;;
48881;SDS011;57063;51.406;-2.402;2023-06-22T07:36:49;8.35;;;4.00;;
48881;SDS011;57063;51.406;-2.402;2023-06-22T07:39:15;7.10;;;4.00;;
48881;SDS011;57063;51.406;-2.402;2023-06-22T07:47:14;11.35;;;3.90;;
48881;SDS011;57063;51.406;-2.402;2023-06-22T07:50:00;6.90;;;2.72;;
48881;SDS011;57063;51.406;-2.402;2023-06-22T07:52:30;4.75;;;3.13;;
48881;SDS011;57063;51.406;-2.402;2023-06-22T07:58:03;4.57;;;2.70;;
48881;SDS011;57063;51.406;-2.402;2023-06-22T08:00:33;4.00;;;2.30;;
48881;SDS011;57063;51.406;-2.402;2023-06-22T08:03:01;7.20;;;2.90;;
48881;SDS011;57063;51.406;-2.402;2023-06-22T08:07:57;4.15;;;2.53;;
48881;SDS011;57063;51.406;-2.402;2023-06-22T08:17:07;3.38;;;2.90;;
48881;SDS011;57063;51.406;-2.402;2023-06-22T08:35:31;9.93;;;2.78;;
48881;SDS011;57063;51.406;-2.402;2023-06-22T08:38:36;9.52;;;2.40;;
48881;SDS011;57063;51.406;-2.402;2023-06-22T08:43:44;4.55;;;3.03;;
48881;SDS011;57063;51.406;-2.402;2023-06-22T08:59:34;11.07;;;3.30;;
48881;SDS011;57063;51.406;-2.402;2023-06-22T09:26:07;6.25;;;3.17;;
48881;SDS011;57063;51.406;-2.402;2023-06-22T10:06:00;4.55;;;2.15;;
48881;SDS011;57063;51.406;-2.402;2023-06-22T10:11:25;4.07;;;1.73;;
48881;SDS011;57063;51.406;-2.402;2023-06-22T10:17:04;6.00;;;2.38;;
48881;SDS011;57063;51.406;-2.402;2023-06-22T13:03:27;7.00;;;1.60;;
48881;SDS011;57063;51.406;-2.402;2023-06-22T13:05:59;2.05;;;1.15;;
48881;SDS011;57063;51.406;-2.402;2023-06-22T13:09:20;2.50;;;1.30;;
48881;SDS011;57063;51.406;-2.402;2023-06-22T13:20:00;1.95;;;1.15;;
48881;SDS011;57063;51.406;-2.402;2023-06-22T13:22:32;2.72;;;1.60;;
48881;SDS011;57063;51.406;-2.402;2023-06-22T13:25:09;5.40;;;1.77;;
48881;SDS011;57063;51.406;-2.402;2023-06-22T13:27:39;3.05;;;1.60;;
48881;SDS011;57063;51.406;-2.402;2023-06-22T13:32:39;4.28;;;2.13;;
48881;SDS011;57063;51.406;-2.402;2023-06-22T13:35:08;2.35;;;1.38;;
48881;SDS011;57063;51.406;-2.402;2023-06-22T13:38:23;3.20;;;1.58;;
48881;SDS011;57063;51.406;-2.402;2023-06-22T13:40:50;5.50;;;1.45;;
48881;SDS011;57063;51.406;-2.402;2023-06-22T13:43:17;5.47;;;1.88;;
48881;SDS011;57063;51.406;-2.402;2023-06-22T13:48:24;3.92;;;2.00;;
48881;SDS011;57063;51.406;-2.402;2023-06-22T13:50:57;6.53;;;1.88;;
48881;SDS011;57063;51.406;-2.402;2023-06-22T13:53:28;3.53;;;1.60;;
48881;SDS011;57063;51.406;-2.402;2023-06-22T14:01:37;5.70;;;1.70;;
48881;SDS011;57063;51.406;-2.402;2023-06-22T14:04:10;5.88;;;1.58;;
48881;SDS011;57063;51.406;-2.402;2023-06-22T14:06:36;8.95;;;1.73;;
48881;SDS011;57063;51.406;-2.402;2023-06-22T14:09:04;5.07;;;1.70;;
48881;SDS011;57063;51.406;-2.402;2023-06-22T14:11:33;1.70;;;1.40;;
48881;SDS011;57063;51.406;-2.402;2023-06-22T14:14:02;3.20;;;1.70;;
48881;SDS011;57063;51.406;-2.402;2023-06-22T14:16:34;2.88;;;1.80;;
48881;SDS011;57063;51.406;-2.402;2023-06-22T14:19:40;4.60;;;1.70;;
48881;SDS011;57063;51.406;-2.402;2023-06-22T14:22:09;3.40;;;1.83;;
48881;SDS011;57063;51.406;-2.402;2023-06-22T14:25:14;3.05;;;1.52;;
48881;SDS011;57063;51.406;-2.402;2023-06-22T14:27:40;2.50;;;1.65;;
48881;SDS011;57063;51.406;-2.402;2023-06-22T14:30:06;3.70;;;1.70;;
48881;SDS011;57063;51.406;-2.402;2023-06-22T14:32:32;4.32;;;1.77;;
48881;SDS011;57063;51.406;-2.402;2023-06-22T14:34:57;3.75;;;1.83;;
48881;SDS011;57063;51.406;-2.402;2023-06-22T14:37:24;3.38;;;1.77;;
48881;SDS011;57063;51.406;-2.402;2023-06-22T14:39:53;3.15;;;1.50;;
48881;SDS011;57063;51.406;-2.402;2023-06-22T14:42:19;3.60;;;1.83;;
48881;SDS011;57063;51.406;-2.402;2023-06-22T14:44:47;2.55;;;1.50;;
48881;SDS011;57063;51.406;-2.402;2023-06-22T14:48:28;3.65;;;1.63;;
48881;SDS011;57063;51.406;-2.402;2023-06-22T14:50:54;3.22;;;1.60;;
48881;SDS011;57063;51.406;-2.402;2023-06-22T14:53:20;1.60;;;1.30;;
48881;SDS011;57063;51.406;-2.402;2023-06-22T14:56:31;4.32;;;1.67;;
48881;SDS011;57063;51.406;-2.402;2023-06-22T14:58:59;3.42;;;1.55;;
48881;SDS011;57063;51.406;-2.402;2023-06-22T15:04:05;2.25;;;1.50;;
48881;SDS011;57063;51.406;-2.402;2023-06-22T15:06:37;2.30;;;1.55;;
48881;SDS011;57063;51.406;-2.402;2023-06-22T15:09:03;7.60;;;1.48;;
48881;SDS011;57063;51.406;-2.402;2023-06-22T15:11:29;4.03;;;1.80;;
48881;SDS011;57063;51.406;-2.402;2023-06-22T15:13:57;6.60;;;1.85;;
48881;SDS011;57063;51.406;-2.402;2023-06-22T15:16:25;2.72;;;1.30;;
48881;SDS011;57063;51.406;-2.402;2023-06-22T15:18:51;3.33;;;1.40;;
48881;SDS011;57063;51.406;-2.402;2023-06-22T15:21:16;4.28;;;1.60;;
48881;SDS011;57063;51.406;-2.402;2023-06-22T15:23:42;3.53;;;1.50;;
48881;SDS011;57063;51.406;-2.402;2023-06-22T15:26:08;3.13;;;1.50;;
48881;SDS011;57063;51.406;-2.402;2023-06-22T15:28:34;5.70;;;1.63;;
48881;SDS011;57063;51.406;-2.402;2023-06-22T15:31:03;2.10;;;1.30;;
48881;SDS011;57063;51.406;-2.402;2023-06-22T15:33:29;1.95;;;1.25;;
48881;SDS011;57063;51.406;-2.402;2023-06-22T15:35:57;1.60;;;0.82;;
48881;SDS011;57063;51.406;-2.402;2023-06-22T15:38:32;2.85;;;1.40;;
48881;SDS011;57063;51.406;-2.402;2023-06-22T15:41:07;4.53;;;1.55;;
48881;SDS011;57063;51.406;-2.402;2023-06-22T15:43:55;3.58;;;1.55;;
48881;SDS011;57063;51.406;-2.402;2023-06-22T15:53:12;2.67;;;1.27;;
48881;SDS011;57063;51.406;-2.402;2023-06-22T15:55:37;2.63;;;1.40;;
48881;SDS011;57063;51.406;-2.402;2023-06-22T15:58:03;2.25;;;1.00;;
48881;SDS011;57063;51.406;-2.402;2023-06-22T16:00:29;6.55;;;1.35;;
48881;SDS011;57063;51.406;-2.402;2023-06-22T16:02:55;6.03;;;1.30;;
48881;SDS011;57063;51.406;-2.402;2023-06-22T16:05:25;2.38;;;1.25;;
48881;SDS011;57063;51.406;-2.402;2023-06-22T16:14:35;1.38;;;0.95;;
48881;SDS011;57063;51.406;-2.402;2023-06-22T16:17:05;5.22;;;1.13;;
48881;SDS011;57063;51.406;-2.402;2023-06-22T16:19:31;3.05;;;0.93;;
48881;SDS011;57063;51.406;-2.402;2023-06-22T16:22:00;3.33;;;1.10;;
48881;SDS011;57063;51.406;-2.402;2023-06-22T16:24:26;2.47;;;1.50;;
48881;SDS011;57063;51.406;-2.402;2023-06-22T16:26:54;3.40;;;0.90;;
48881;SDS011;57063;51.406;-2.402;2023-06-22T16:29:39;3.00;;;1.10;;
48881;SDS011;57063;51.406;-2.402;2023-06-22T16:32:06;2.58;;;1.25;;
48881;SDS011;57063;51.406;-2.402;2023-06-22T16:34:37;2.42;;;1.10;;
48881;SDS011;57063;51.406;-2.402;2023-06-22T16:37:05;3.70;;;1.13;;
48881;SDS011;57063;51.406;-2.402;2023-06-22T16:39:34;1.87;;;1.17;;
48881;SDS011;57063;51.406;-2.402;2023-06-22T16:42:01;1.48;;;1.10;;
48881;SDS011;57063;51.406;-2.402;2023-06-22T16:44:27;1.73;;;1.10;;
48881;SDS011;57063;51.406;-2.402;2023-06-22T16:46:58;2.63;;;1.02;;
48881;SDS011;57063;51.406;-2.402;2023-06-22T16:49:27;1.58;;;0.82;;
48881;SDS011;57063;51.406;-2.402;2023-06-22T16:51:55;3.40;;;1.65;;
48881;SDS011;57063;51.406;-2.402;2023-06-22T16:54:21;1.50;;;1.00;;
48881;SDS011;57063;51.406;-2.402;2023-06-22T16:56:47;3.85;;;1.10;;
48881;SDS011;57063;51.406;-2.402;2023-06-22T16:59:13;1.52;;;1.10;;
48881;SDS011;57063;51.406;-2.402;2023-06-22T17:01:48;3.28;;;1.80;;
48881;SDS011;57063;51.406;-2.402;2023-06-22T17:04:16;2.67;;;1.38;;
48881;SDS011;57063;51.406;-2.402;2023-06-22T17:06:53;8.18;;;3.10;;
48881;SDS011;57063;51.406;-2.402;2023-06-22T17:09:22;2.38;;;1.45;;
48881;SDS011;57063;51.406;-2.402;2023-06-22T17:11:51;4.45;;;1.30;;
48881;SDS011;57063;51.406;-2.402;2023-06-22T17:14:18;5.00;;;1.48;;
48881;SDS011;57063;51.406;-2.402;2023-06-22T17:16:44;1.35;;;1.10;;
48881;SDS011;57063;51.406;-2.402;2023-06-22T17:19:11;3.47;;;1.35;;
48881;SDS011;57063;51.406;-2.402;2023-06-22T17:21:39;2.35;;;1.23;;
48881;SDS011;57063;51.406;-2.402;2023-06-22T17:24:06;4.50;;;1.52;;
48881;SDS011;57063;51.406;-2.402;2023-06-22T17:26:31;4.10;;;1.58;;
48881;SDS011;57063;51.406;-2.402;2023-06-22T17:28:57;2.17;;;1.55;;
48881;SDS011;57063;51.406;-2.402;2023-06-22T17:31:37;4.20;;;1.20;;
48881;SDS011;57063;51.406;-2.402;2023-06-22T17:34:11;6.15;;;1.67;;
48881;SDS011;57063;51.406;-2.402;2023-06-22T17:36:49;2.25;;;1.65;;
48881;SDS011;57063;51.406;-2.402;2023-06-22T17:39:19;3.30;;;1.48;;
48881;SDS011;57063;51.406;-2.402;2023-06-22T17:41:46;4.20;;;2.00;;
48881;SDS011;57063;51.406;-2.402;2023-06-22T17:44:13;5.65;;;1.90;;
48881;SDS011;57063;51.406;-2.402;2023-06-22T17:46:42;3.35;;;1.80;;
48881;SDS011;57063;51.406;-2.402;2023-06-22T17:49:08;2.33;;;1.40;;
48881;SDS011;57063;51.406;-2.402;2023-06-22T17:51:40;2.90;;;1.73;;
48881;SDS011;57063;51.406;-2.402;2023-06-22T17:54:06;5.88;;;1.60;;
48881;SDS011;57063;51.406;-2.402;2023-06-22T17:56:33;3.53;;;1.80;;
48881;SDS011;57063;51.406;-2.402;2023-06-22T17:58:58;4.55;;;1.77;;
48881;SDS011;57063;51.406;-2.402;2023-06-22T18:01:37;7.53;;;1.80;;
48881;SDS011;57063;51.406;-2.402;2023-06-22T18:04:06;4.63;;;3.13;;
48881;SDS011;57063;51.406;-2.402;2023-06-22T18:06:35;8.00;;;2.50;;
48881;SDS011;57063;51.406;-2.402;2023-06-22T18:09:04;2.80;;;2.03;;
48881;SDS011;57063;51.406;-2.402;2023-06-22T18:11:31;7.25;;;1.85;;
48881;SDS011;57063;51.406;-2.402;2023-06-22T18:14:02;12.18;;;2.15;;
48881;SDS011;57063;51.406;-2.402;2023-06-22T18:16:29;2.42;;;1.60;;
48881;SDS011;57063;51.406;-2.402;2023-06-22T18:18:56;3.20;;;1.98;;
48881;SDS011;57063;51.406;-2.402;2023-06-22T18:21:23;7.10;;;2.25;;
48881;SDS011;57063;51.406;-2.402;2023-06-22T18:23:49;4.82;;;1.90;;
48881;SDS011;57063;51.406;-2.402;2023-06-22T18:26:16;3.33;;;1.92;;
48881;SDS011;57063;51.406;-2.402;2023-06-22T18:28:45;4.63;;;2.15;;
48881;SDS011;57063;51.406;-2.402;2023-06-22T18:31:10;2.58;;;1.90;;
48881;SDS011;57063;51.406;-2.402;2023-06-22T18:33:37;4.70;;;1.98;;
48881;SDS011;57063;51.406;-2.402;2023-06-22T18:36:04;4.20;;;1.70;;
48881;SDS011;57063;51.406;-2.402;2023-06-22T18:38:31;4.30;;;2.13;;
48881;SDS011;57063;51.406;-2.402;2023-06-22T18:40:56;5.30;;;1.70;;
48881;SDS011;57063;51.406;-2.402;2023-06-22T18:43:23;3.80;;;1.98;;
48881;SDS011;57063;51.406;-2.402;2023-06-22T18:45:49;3.95;;;2.05;;
48881;SDS011;57063;51.406;-2.402;2023-06-22T18:48:22;3.97;;;2.05;;
48881;SDS011;57063;51.406;-2.402;2023-06-22T18:50:49;5.63;;;2.00;;
48881;SDS011;57063;51.406;-2.402;2023-06-22T18:55:50;5.00;;;2.42;;
48881;SDS011;57063;51.406;-2.402;2023-06-22T18:58:17;3.22;;;2.08;;
48881;SDS011;57063;51.406;-2.402;2023-06-22T19:00:50;4.07;;;2.33;;
48881;SDS011;57063;51.406;-2.402;2023-06-22T19:03:22;5.90;;;2.30;;
48881;SDS011;57063;51.406;-2.402;2023-06-22T19:05:54;3.50;;;2.33;;
48881;SDS011;57063;51.406;-2.402;2023-06-22T19:08:20;6.25;;;2.58;;
48881;SDS011;57063;51.406;-2.402;2023-06-22T19:10:47;5.43;;;2.80;;
48881;SDS011;57063;51.406;-2.402;2023-06-22T19:15:41;3.90;;;2.42;;
48881;SDS011;57063;51.406;-2.402;2023-06-22T19:18:15;5.82;;;2.58;;
48881;SDS011;57063;51.406;-2.402;2023-06-22T19:20:41;4.90;;;2.53;;
48881;SDS011;57063;51.406;-2.402;2023-06-22T19:23:22;3.63;;;2.47;;
48881;SDS011;57063;51.406;-2.402;2023-06-22T19:25:59;3.55;;;2.53;;
48881;SDS011;57063;51.406;-2.402;2023-06-22T19:28:26;3.88;;;2.92;;
48881;SDS011;57063;51.406;-2.402;2023-06-22T19:30:55;4.38;;;3.00;;
48881;SDS011;57063;51.406;-2.402;2023-06-22T19:33:23;6.40;;;2.40;;
48881;SDS011;57063;51.406;-2.402;2023-06-22T19:35:50;6.43;;;2.88;;
48881;SDS011;57063;51.406;-2.402;2023-06-22T19:38:18;7.63;;;2.95;;
48881;SDS011;57063;51.406;-2.402;2023-06-22T19:40:44;6.68;;;2.30;;
48881;SDS011;57063;51.406;-2.402;2023-06-22T19:43:11;8.05;;;2.80;;
48881;SDS011;57063;51.406;-2.402;2023-06-22T19:45:42;4.35;;;2.63;;
48881;SDS011;57063;51.406;-2.402;2023-06-22T19:48:08;3.22;;;2.80;;
48881;SDS011;57063;51.406;-2.402;2023-06-22T19:50:35;3.00;;;2.67;;
48881;SDS011;57063;51.406;-2.402;2023-06-22T19:53:06;5.85;;;2.55;;
48881;SDS011;57063;51.406;-2.402;2023-06-22T19:55:32;4.28;;;2.80;;
48881;SDS011;57063;51.406;-2.402;2023-06-22T19:57:58;5.47;;;2.67;;
48881;SDS011;57063;51.406;-2.402;2023-06-22T20:00:23;3.25;;;2.50;;
48881;SDS011;57063;51.406;-2.402;2023-06-22T20:02:49;4.93;;;3.00;;
48881;SDS011;57063;51.406;-2.402;2023-06-22T20:05:19;4.93;;;2.78;;
48881;SDS011;57063;51.406;-2.402;2023-06-22T20:07:45;5.38;;;3.00;;
48881;SDS011;57063;51.406;-2.402;2023-06-22T20:12:46;5.30;;;3.17;;
48881;SDS011;57063;51.406;-2.402;2023-06-22T20:15:19;7.72;;;3.15;;
48881;SDS011;57063;51.406;-2.402;2023-06-22T20:18:02;6.97;;;3.20;;
48881;SDS011;57063;51.406;-2.402;2023-06-22T20:20:30;9.23;;;4.93;;
48881;SDS011;57063;51.406;-2.402;2023-06-22T20:23:00;3.85;;;2.95;;
48881;SDS011;57063;51.406;-2.402;2023-06-22T20:38:23;3.92;;;3.25;;
48881;SDS011;57063;51.406;-2.402;2023-06-22T20:54:16;5.30;;;3.65;;
48881;SDS011;57063;51.406;-2.402;2023-06-22T21:16:33;5.63;;;3.30;;
48881;SDS011;57063;51.406;-2.402;2023-06-22T21:18:59;5.03;;;3.90;;
48881;SDS011;57063;51.406;-2.402;2023-06-22T21:21:24;5.47;;;3.40;;
48881;SDS011;57063;51.406;-2.402;2023-06-22T21:30:03;5.32;;;3.78;;
48881;SDS011;57063;51.406;-2.402;2023-06-22T21:32:31;5.03;;;3.22;;
48881;SDS011;57063;51.406;-2.402;2023-06-22T21:37:41;8.98;;;4.35;;
48881;SDS011;57063;51.406;-2.402;2023-06-22T21:40:11;5.75;;;3.38;;
48881;SDS011;57063;51.406;-2.402;2023-06-22T21:42:37;4.55;;;3.65;;
48881;SDS011;57063;51.406;-2.402;2023-06-22T21:45:02;7.97;;;3.72;;
48881;SDS011;57063;51.406;-2.402;2023-06-22T21:47:28;6.55;;;3.60;;
48881;SDS011;57063;51.406;-2.402;2023-06-22T21:49:54;5.93;;;3.58;;
48881;SDS011;57063;51.406;-2.402;2023-06-22T21:52:20;6.25;;;3.70;;
48881;SDS011;57063;51.406;-2.402;2023-06-22T21:54:45;5.72;;;3.53;;
48881;SDS011;57063;51.406;-2.402;2023-06-22T21:57:10;3.95;;;3.38;;
48881;SDS011;57063;51.406;-2.402;2023-06-22T21:59:36;6.18;;;3.85;;
48881;SDS011;57063;51.406;-2.402;2023-06-22T22:02:02;5.75;;;3.50;;
48881;SDS011;57063;51.406;-2.402;2023-06-22T22:04:28;5.30;;;3.45;;
48881;SDS011;57063;51.406;-2.402;2023-06-22T22:06:54;5.85;;;3.70;;
48881;SDS011;57063;51.406;-2.402;2023-06-22T22:09:20;9.18;;;3.90;;
48881;SDS011;57063;51.406;-2.402;2023-06-22T22:11:46;7.57;;;3.70;;
48881;SDS011;57063;51.406;-2.402;2023-06-22T22:14:12;4.65;;;3.58;;
48881;SDS011;57063;51.406;-2.402;2023-06-22T22:16:38;8.30;;;4.57;;
48881;SDS011;57063;51.406;-2.402;2023-06-22T22:19:05;7.35;;;3.45;;
48881;SDS011;57063;51.406;-2.402;2023-06-22T22:21:32;6.55;;;4.03;;
48881;SDS011;57063;51.406;-2.402;2023-06-22T22:23:58;7.28;;;4.35;;
48881;SDS011;57063;51.406;-2.402;2023-06-22T22:26:23;5.40;;;3.92;;
48881;SDS011;57063;51.406;-2.402;2023-06-22T22:28:49;4.80;;;3.63;;
48881;SDS011;57063;51.406;-2.402;2023-06-22T22:31:15;5.93;;;4.10;;
48881;SDS011;57063;51.406;-2.402;2023-06-22T22:33:41;4.47;;;3.30;;
48881;SDS011;57063;51.406;-2.402;2023-06-22T22:36:07;6.00;;;3.85;;
48881;SDS011;57063;51.406;-2.402;2023-06-22T22:38:32;6.20;;;4.20;;
48881;SDS011;57063;51.406;-2.402;2023-06-22T22:40:59;4.75;;;3.50;;
48881;SDS011;57063;51.406;-2.402;2023-06-22T22:43:25;5.22;;;3.72;;
48881;SDS011;57063;51.406;-2.402;2023-06-22T22:45:51;4.90;;;3.95;;
48881;SDS011;57063;51.406;-2.402;2023-06-22T22:48:16;6.28;;;3.95;;
48881;SDS011;57063;51.406;-2.402;2023-06-22T22:50:42;6.88;;;4.00;;
48881;SDS011;57063;51.406;-2.402;2023-06-22T22:53:08;6.18;;;4.50;;
48881;SDS011;57063;51.406;-2.402;2023-06-22T22:55:33;5.68;;;4.03;;
48881;SDS011;57063;51.406;-2.402;2023-06-22T22:58:00;6.18;;;3.92;;
48881;SDS011;57063;51.406;-2.402;2023-06-22T23:00:26;6.68;;;4.10;;
48881;SDS011;57063;51.406;-2.402;2023-06-22T23:02:52;6.22;;;4.10;;
48881;SDS011;57063;51.406;-2.402;2023-06-22T23:05:18;4.72;;;4.25;;
48881;SDS011;57063;51.406;-2.402;2023-06-22T23:07:44;4.25;;;3.83;;
48881;SDS011;57063;51.406;-2.402;2023-06-22T23:10:10;6.47;;;4.28;;
48881;SDS011;57063;51.406;-2.402;2023-06-22T23:12:37;7.10;;;4.55;;
48881;SDS011;57063;51.406;-2.402;2023-06-22T23:15:03;5.53;;;3.90;;
48881;SDS011;57063;51.406;-2.402;2023-06-22T23:17:29;6.97;;;4.30;;
48881;SDS011;57063;51.406;-2.402;2023-06-22T23:19:55;6.53;;;4.55;;
48881;SDS011;57063;51.406;-2.402;2023-06-22T23:22:20;5.95;;;3.65;;
48881;SDS011;57063;51.406;-2.402;2023-06-22T23:24:46;6.30;;;3.85;;
48881;SDS011;57063;51.406;-2.402;2023-06-22T23:27:12;7.75;;;4.70;;
48881;SDS011;57063;51.406;-2.402;2023-06-22T23:29:38;7.68;;;4.30;;
48881;SDS011;57063;51.406;-2.402;2023-06-22T23:32:03;11.85;;;5.38;;
48881;SDS011;57063;51.406;-2.402;2023-06-22T23:34:29;6.55;;;4.00;;
48881;SDS011;57063;51.406;-2.402;2023-06-22T23:36:54;9.40;;;4.57;;
48881;SDS011;57063;51.406;-2.402;2023-06-22T23:39:20;7.00;;;5.00;;
48881;SDS011;57063;51.406;-2.402;2023-06-22T23:41:46;6.47;;;4.57;;
48881;SDS011;57063;51.406;-2.402;2023-06-22T23:44:11;7.80;;;4.43;;
48881;SDS011;57063;51.406;-2.402;2023-06-22T23:46:37;6.55;;;5.00;;
48881;SDS011;57063;51.406;-2.402;2023-06-22T23:49:02;6.25;;;4.65;;
48881;SDS011;57063;51.406;-2.402;2023-06-22T23:51:27;5.32;;;4.40;;
48881;SDS011;57063;51.406;-2.402;2023-06-22T23:53:57;9.45;;;4.82;;
48881;SDS011;57063;51.406;-2.402;2023-06-22T23:56:22;6.68;;;5.15;;
48881;SDS011;57063;51.406;-2.402;2023-06-22T23:58:52;8.80;;;4.97;;
